Lakeville, Indiana
Current Conditions -  °F | °C
As of 5:02 PM on Thursday 27 Nov 2014 (Local Time) from KSBN Reporting Station
Light Snow Light Snow  
Wind Chill: 15°   Ceiling: 2100
Heat Index: 27°   Visibility: 1.5mi
Dew Point: 22°   Wind: 15mph
Humidity: 81%   Direction: 290°WNW
Pressure: 30.32"   Gusts: NA
Location:  41.52°N, 86.27°W
Report Text: KSBN 272202Z 29013KT 1 1/2SM -SN SCT013 BKN021 OVC027 M03/M06 A3032 RMK AO2 P0000 T10281056
Loading
Personal Weather Stations






























Interactive Weather Map New forecast layout! Learn more

10-Day Weather Forecast

Advertisements
Track Severe Weather on mobile